createdAt,value
2022-11-27T00:00:24.156Z,2.75
2022-11-27T00:01:24.137Z,2.73
2022-11-27T00:02:24.192Z,2.72
2022-11-27T00:03:24.238Z,2.68
2022-11-27T00:04:24.109Z,2.63
2022-11-27T00:05:24.079Z,2.60
2022-11-27T00:06:24.079Z,2.63
2022-11-27T00:07:24.099Z,2.63
2022-11-27T00:08:24.059Z,2.63
2022-11-27T00:09:24.029Z,2.60
2022-11-27T00:10:24.034Z,2.61
2022-11-27T00:11:23.999Z,2.58
2022-11-27T00:12:24.001Z,2.55
2022-11-27T00:13:23.991Z,2.54
2022-11-27T00:14:23.970Z,2.53
2022-11-27T00:15:23.950Z,2.53
2022-11-27T00:16:24.010Z,2.50
2022-11-27T00:17:23.925Z,2.53
2022-11-27T00:18:23.932Z,2.50
2022-11-27T00:19:23.901Z,2.50
2022-11-27T00:20:27.394Z,2.51
2022-11-27T00:21:24.877Z,2.54
2022-11-27T00:22:23.862Z,2.57
2022-11-27T00:23:23.871Z,2.55
2022-11-27T00:24:23.843Z,2.58
2022-11-27T00:25:23.831Z,2.55
2022-11-27T00:26:23.811Z,2.55
2022-11-27T00:27:23.792Z,2.55
2022-11-27T00:28:23.808Z,2.54
2022-11-27T00:29:23.773Z,2.54
2022-11-27T00:30:23.766Z,2.58
2022-11-27T00:31:23.841Z,2.55
2022-11-27T00:32:23.729Z,2.51
2022-11-27T00:33:23.723Z,2.54
2022-11-27T00:34:23.834Z,2.54
2022-11-27T00:35:23.695Z,2.57
2022-11-27T00:36:23.684Z,2.54
2022-11-27T00:37:23.677Z,2.57
2022-11-27T00:38:23.664Z,2.60
2022-11-27T00:39:23.640Z,2.57
2022-11-27T00:40:23.628Z,2.58
2022-11-27T00:41:23.627Z,2.58
2022-11-27T00:42:23.600Z,2.61
2022-11-27T00:43:23.594Z,2.66
2022-11-27T00:44:23.577Z,2.65
2022-11-27T00:45:23.565Z,2.65
2022-11-27T00:46:28.131Z,2.65
2022-11-27T00:47:24.546Z,2.65
2022-11-27T00:48:23.534Z,2.61
2022-11-27T00:49:23.533Z,2.61
2022-11-27T00:50:23.495Z,2.61
2022-11-27T00:51:23.489Z,2.65
2022-11-27T00:52:23.466Z,2.61
2022-11-27T00:53:23.466Z,2.60
2022-11-27T00:54:23.448Z,2.58
2022-11-27T00:55:23.428Z,2.61
2022-11-27T00:56:23.413Z,2.61
2022-11-27T00:57:23.398Z,2.60
2022-11-27T00:58:23.407Z,2.61
2022-11-27T00:59:23.382Z,2.60
2022-11-27T01:00:23.377Z,2.60
2022-11-27T01:01:23.452Z,2.58
2022-11-27T01:02:24.320Z,2.58
2022-11-27T01:03:23.337Z,2.61
2022-11-27T01:04:23.320Z,2.58
2022-11-27T01:05:23.298Z,2.60
2022-11-27T01:06:23.288Z,2.57
2022-11-27T01:07:23.356Z,2.60
2022-11-27T01:08:23.271Z,2.58
2022-11-27T01:09:23.488Z,2.60
2022-11-27T01:10:23.253Z,2.61
2022-11-27T01:11:23.230Z,2.63
2022-11-27T01:12:23.216Z,2.61
2022-11-27T01:13:23.210Z,2.65
2022-11-27T01:14:24.149Z,2.65
2022-11-27T01:15:23.181Z,2.65
2022-11-27T01:16:23.316Z,2.65
2022-11-27T01:17:23.150Z,2.63
2022-11-27T01:18:23.161Z,2.65
2022-11-27T01:19:23.131Z,2.65
2022-11-27T01:20:23.110Z,2.69
2022-11-27T01:21:23.103Z,2.68
2022-11-27T01:22:23.098Z,2.68
2022-11-27T01:23:23.080Z,2.71
2022-11-27T01:24:23.061Z,2.68
2022-11-27T01:25:26.758Z,2.75
2022-11-27T01:26:23.991Z,2.69
2022-11-27T01:27:23.021Z,2.72
2022-11-27T01:28:23.022Z,2.73
2022-11-27T01:29:22.994Z,2.73
2022-11-27T01:30:22.990Z,2.71
2022-11-27T01:31:23.049Z,2.72
2022-11-27T01:32:22.962Z,2.73
2022-11-27T01:33:22.953Z,2.71
2022-11-27T01:34:22.934Z,2.72
2022-11-27T01:35:22.923Z,2.71
2022-11-27T01:36:22.912Z,2.71
2022-11-27T01:37:22.893Z,2.69
2022-11-27T01:38:22.889Z,2.68
2022-11-27T01:39:22.863Z,2.68
2022-11-27T01:40:22.853Z,2.68
2022-11-27T01:41:22.846Z,2.63
2022-11-27T01:42:22.835Z,2.65
2022-11-27T01:43:22.825Z,2.65
2022-11-27T01:44:22.804Z,2.63
2022-11-27T01:45:22.797Z,2.66
2022-11-27T01:46:22.812Z,2.63
2022-11-27T01:47:22.768Z,2.65
2022-11-27T01:48:22.766Z,2.63
2022-11-27T01:49:22.739Z,2.60
2022-11-27T01:50:22.735Z,2.63
2022-11-27T01:51:22.719Z,2.61
2022-11-27T01:52:22.707Z,2.61
2022-11-27T01:53:22.725Z,2.60
2022-11-27T01:54:22.675Z,2.60
2022-11-27T01:55:22.666Z,2.61
2022-11-27T01:56:23.606Z,2.58
2022-11-27T01:57:22.630Z,2.55
2022-11-27T01:58:22.626Z,2.51
2022-11-27T01:59:22.607Z,2.53
2022-11-27T02:00:22.618Z,2.51
2022-11-27T02:01:22.608Z,2.53
2022-11-27T02:02:22.615Z,2.53
2022-11-27T02:03:22.594Z,2.53
2022-11-27T02:04:22.549Z,2.48
2022-11-27T02:05:22.528Z,2.48
2022-11-27T02:06:22.518Z,2.51
2022-11-27T02:07:22.584Z,2.45
2022-11-27T02:08:22.500Z,2.43
2022-11-27T02:09:22.479Z,2.43
2022-11-27T02:10:22.474Z,2.42
2022-11-27T02:11:22.451Z,2.40
2022-11-27T02:12:22.439Z,2.40
2022-11-27T02:13:22.430Z,2.36
2022-11-27T02:14:22.410Z,2.42
2022-11-27T02:15:22.399Z,2.36
2022-11-27T02:16:22.411Z,2.42
2022-11-27T02:17:22.370Z,2.40
2022-11-27T02:18:22.378Z,2.37
2022-11-27T02:19:22.350Z,2.36
2022-11-27T02:20:22.343Z,2.36
2022-11-27T02:21:22.322Z,2.36
2022-11-27T02:22:22.311Z,2.39
2022-11-27T02:23:22.301Z,2.42
2022-11-27T02:24:22.281Z,2.39
2022-11-27T02:25:28.001Z,2.39
2022-11-27T02:26:23.251Z,2.39
2022-11-27T02:27:22.262Z,2.39
2022-11-27T02:28:22.242Z,2.39
2022-11-27T02:29:22.225Z,2.39
2022-11-27T02:30:22.210Z,2.40
2022-11-27T02:31:22.253Z,2.42
2022-11-27T02:32:22.182Z,2.45
2022-11-27T02:33:22.174Z,2.45
2022-11-27T02:34:22.169Z,2.42
2022-11-27T02:35:22.133Z,2.43
2022-11-27T02:36:22.131Z,2.45
2022-11-27T02:37:22.113Z,2.43
2022-11-27T02:38:22.113Z,2.45
2022-11-27T02:39:22.085Z,2.43
2022-11-27T02:40:22.087Z,2.45
2022-11-27T02:41:22.063Z,2.39
2022-11-27T02:42:22.057Z,2.39
2022-11-27T02:43:22.193Z,2.39
2022-11-27T02:44:22.024Z,2.39
2022-11-27T02:45:22.027Z,2.36
2022-11-27T02:46:22.050Z,2.35
2022-11-27T02:47:22.008Z,2.29
2022-11-27T02:48:21.985Z,2.29
2022-11-27T02:49:21.964Z,2.29
2022-11-27T02:50:21.945Z,2.24
2022-11-27T02:51:21.937Z,2.21
2022-11-27T02:52:21.925Z,2.19
2022-11-27T02:53:21.915Z,2.17
2022-11-27T02:54:21.895Z,2.18
2022-11-27T02:55:21.884Z,2.15
2022-11-27T02:56:21.868Z,2.18
2022-11-27T02:57:21.856Z,2.17
2022-11-27T02:58:21.857Z,2.18
2022-11-27T02:59:21.836Z,2.14
2022-11-27T03:00:21.816Z,2.14
2022-11-27T03:01:21.885Z,2.11
2022-11-27T03:02:21.824Z,2.12
2022-11-27T03:03:21.893Z,2.07
2022-11-27T03:04:21.772Z,2.07
2022-11-27T03:05:21.760Z,2.06
2022-11-27T03:06:21.755Z,2.03
2022-11-27T03:07:21.777Z,2.06
2022-11-27T03:08:21.741Z,2.06
2022-11-27T03:09:21.728Z,2.01
2022-11-27T03:10:21.702Z,2.03
2022-11-27T03:11:21.688Z,2.00
2022-11-27T03:12:21.694Z,1.99
2022-11-27T03:13:21.682Z,1.92
2022-11-27T03:14:21.648Z,1.92
2022-11-27T03:15:21.632Z,1.93
2022-11-27T03:16:21.664Z,1.97
2022-11-27T03:17:21.624Z,1.92
2022-11-27T03:18:21.604Z,1.91
2022-11-27T03:19:23.592Z,1.91
2022-11-27T03:20:21.560Z,1.89
2022-11-27T03:21:21.564Z,1.87
2022-11-27T03:22:21.539Z,1.87
2022-11-27T03:23:21.542Z,1.89
2022-11-27T03:24:21.521Z,1.89
2022-11-27T03:25:21.510Z,1.92
2022-11-27T03:26:21.482Z,1.91
2022-11-27T03:27:21.481Z,1.93
2022-11-27T03:28:21.470Z,1.92
2022-11-27T03:29:21.451Z,1.92
2022-11-27T03:30:21.431Z,1.97
2022-11-27T03:31:21.511Z,1.99
2022-11-27T03:32:21.410Z,1.99
2022-11-27T03:33:21.415Z,1.99
2022-11-27T03:34:21.391Z,2.01
2022-11-27T03:35:21.383Z,2.01
2022-11-27T03:36:21.364Z,2.00
2022-11-27T03:37:21.352Z,2.00
2022-11-27T03:38:21.343Z,1.99
2022-11-27T03:39:21.323Z,2.01
2022-11-27T03:40:21.313Z,1.99
2022-11-27T03:41:21.307Z,2.01
2022-11-27T03:42:21.300Z,1.99
2022-11-27T03:43:21.286Z,1.97
2022-11-27T03:44:21.265Z,1.99
2022-11-27T03:45:21.256Z,1.95
2022-11-27T03:46:21.293Z,1.97
2022-11-27T03:47:21.269Z,1.99
2022-11-27T03:48:21.224Z,1.92
2022-11-27T03:49:21.204Z,1.95
2022-11-27T03:50:21.195Z,1.99
2022-11-27T03:51:21.174Z,1.97
2022-11-27T03:52:21.167Z,2.00
2022-11-27T03:53:21.162Z,2.00
2022-11-27T03:54:22.095Z,1.99
2022-11-27T03:55:21.129Z,2.03
2022-11-27T03:56:21.115Z,2.03
2022-11-27T03:57:21.101Z,2.04
2022-11-27T03:58:21.105Z,2.10
2022-11-27T03:59:21.076Z,2.07
2022-11-27T04:00:21.067Z,2.10
2022-11-27T04:01:21.103Z,2.07
2022-11-27T04:02:21.072Z,2.11
2022-11-27T04:03:21.036Z,2.11
2022-11-27T04:04:21.113Z,2.11
2022-11-27T04:05:21.010Z,2.12
2022-11-27T04:06:20.988Z,2.07
2022-11-27T04:07:21.002Z,2.06
2022-11-27T04:08:21.925Z,2.00
2022-11-27T04:09:20.954Z,2.00
2022-11-27T04:10:20.930Z,2.03
2022-11-27T04:11:20.927Z,1.99
2022-11-27T04:12:20.907Z,1.97
2022-11-27T04:13:20.917Z,1.97
2022-11-27T04:14:20.900Z,1.93
2022-11-27T04:15:20.878Z,1.97
2022-11-27T04:16:20.923Z,1.89
2022-11-27T04:17:20.852Z,1.91
2022-11-27T04:18:20.852Z,1.89
2022-11-27T04:19:20.829Z,1.89
2022-11-27T04:20:20.810Z,1.87
2022-11-27T04:21:20.801Z,1.85
2022-11-27T04:22:20.795Z,1.84
2022-11-27T04:23:20.795Z,1.84
2022-11-27T04:24:20.777Z,1.82
2022-11-27T04:25:20.757Z,1.80
2022-11-27T04:26:20.739Z,1.80
2022-11-27T04:27:20.726Z,1.84
2022-11-27T04:28:20.725Z,1.81
2022-11-27T04:29:20.699Z,1.82
2022-11-27T04:30:20.680Z,1.80
2022-11-27T04:31:20.708Z,1.80
2022-11-27T04:32:20.662Z,1.80
2022-11-27T04:33:20.654Z,1.78
2022-11-27T04:34:20.632Z,1.81
2022-11-27T04:35:20.624Z,1.85
2022-11-27T04:36:20.604Z,1.84
2022-11-27T04:37:20.602Z,1.87
2022-11-27T04:38:20.592Z,1.87
2022-11-27T04:39:20.579Z,1.91
2022-11-27T04:40:20.553Z,1.89
2022-11-27T04:41:20.544Z,1.91
2022-11-27T04:42:20.531Z,1.93
2022-11-27T04:43:20.532Z,1.97
2022-11-27T04:44:20.501Z,1.93
2022-11-27T04:45:20.492Z,1.95
2022-11-27T04:46:20.534Z,2.00
2022-11-27T04:47:20.463Z,2.03
2022-11-27T04:48:20.462Z,2.01
2022-11-27T04:49:20.443Z,2.04
2022-11-27T04:50:20.426Z,2.01
2022-11-27T04:51:20.413Z,2.03
2022-11-27T04:52:20.406Z,2.04
2022-11-27T04:53:20.402Z,2.04
2022-11-27T04:54:20.382Z,2.03
2022-11-27T04:55:20.362Z,2.00
2022-11-27T04:56:20.356Z,1.99
2022-11-27T04:57:20.343Z,2.00
2022-11-27T04:58:20.333Z,2.01
2022-11-27T04:59:20.314Z,2.00
2022-11-27T05:00:22.278Z,2.04
2022-11-27T05:01:20.369Z,2.03
2022-11-27T05:02:20.274Z,2.10
2022-11-27T05:03:20.381Z,2.06
2022-11-27T05:04:20.254Z,2.04
2022-11-27T05:05:20.256Z,2.06
2022-11-27T05:06:20.224Z,2.06
2022-11-27T05:07:20.248Z,2.04
2022-11-27T05:08:20.206Z,2.10
2022-11-27T05:09:20.195Z,2.06
2022-11-27T05:10:20.177Z,2.06
2022-11-27T05:11:20.165Z,2.07
2022-11-27T05:12:20.154Z,2.06
2022-11-27T05:13:20.157Z,2.04
2022-11-27T05:14:20.126Z,2.04
2022-11-27T05:15:20.121Z,2.03
2022-11-27T05:16:20.121Z,2.07
2022-11-27T05:17:20.097Z,2.06
2022-11-27T05:18:20.086Z,2.04
2022-11-27T05:19:20.279Z,2.04
2022-11-27T05:20:20.048Z,2.04
2022-11-27T05:21:20.047Z,2.04
2022-11-27T05:22:20.028Z,2.04
2022-11-27T05:23:20.027Z,2.04
2022-11-27T05:24:19.997Z,2.03
2022-11-27T05:25:19.999Z,2.03
2022-11-27T05:26:19.977Z,1.99
2022-11-27T05:27:19.968Z,2.03
2022-11-27T05:28:25.088Z,2.01
2022-11-27T05:29:20.938Z,2.03
2022-11-27T05:30:19.958Z,2.01
2022-11-27T05:31:19.967Z,2.03
2022-11-27T05:32:19.908Z,2.01
2022-11-27T05:33:19.915Z,2.04
2022-11-27T05:34:19.879Z,2.06
2022-11-27T05:35:19.863Z,2.03
2022-11-27T05:36:19.856Z,2.06
2022-11-27T05:37:20.193Z,2.07
2022-11-27T05:38:19.853Z,2.01
2022-11-27T05:39:19.819Z,2.00
2022-11-27T05:40:19.805Z,1.99
2022-11-27T05:41:19.789Z,1.99
2022-11-27T05:42:19.795Z,1.99
2022-11-27T05:43:19.790Z,1.95
2022-11-27T05:44:19.753Z,1.93
2022-11-27T05:45:19.741Z,1.99
2022-11-27T05:46:19.814Z,1.99
2022-11-27T05:47:19.721Z,1.95
2022-11-27T05:48:20.131Z,1.93
2022-11-27T05:49:25.389Z,1.95
2022-11-27T05:54:39.564Z,1.95
2022-11-27T05:54:48.688Z,1.78
2022-11-27T05:55:44.431Z,1.82
2022-11-27T05:56:44.415Z,1.81
2022-11-27T05:57:44.662Z,1.74
2022-11-27T05:58:44.403Z,1.77
2022-11-27T05:59:44.373Z,1.78
2022-11-27T06:00:44.362Z,1.75
2022-11-27T06:01:44.417Z,1.75
2022-11-27T06:02:44.440Z,1.73
2022-11-27T06:03:44.462Z,1.77
2022-11-27T06:04:44.321Z,1.75
2022-11-27T06:05:44.310Z,1.78
2022-11-27T06:06:44.284Z,1.77
2022-11-27T06:07:44.330Z,1.75
2022-11-27T06:08:44.293Z,1.77
2022-11-27T06:09:44.252Z,1.75
2022-11-27T06:10:44.235Z,1.73
2022-11-27T06:11:44.222Z,1.78
2022-11-27T06:12:44.232Z,1.75
2022-11-27T06:13:44.207Z,1.75
2022-11-27T06:14:44.187Z,1.73
2022-11-27T06:15:44.166Z,1.73
2022-11-27T06:16:44.231Z,1.75
2022-11-27T06:17:44.149Z,1.74
2022-11-27T06:18:44.159Z,1.75
2022-11-27T06:19:44.124Z,1.75
2022-11-27T06:20:46.778Z,1.77
2022-11-27T06:21:44.104Z,1.75
2022-11-27T06:22:44.107Z,1.73
2022-11-27T06:23:44.083Z,1.77
2022-11-27T06:24:44.066Z,1.73
2022-11-27T06:25:44.046Z,1.69
2022-11-27T06:26:44.043Z,1.69
2022-11-27T06:27:44.024Z,1.69
2022-11-27T06:28:44.027Z,1.69
2022-11-27T06:29:43.999Z,1.67
2022-11-27T06:30:43.988Z,1.67
2022-11-27T06:31:44.059Z,1.67
2022-11-27T06:32:43.966Z,1.69
2022-11-27T06:33:43.980Z,1.73
2022-11-27T06:34:43.965Z,1.69
2022-11-27T06:35:43.925Z,1.73
2022-11-27T06:36:43.909Z,1.77
2022-11-27T06:37:43.896Z,1.77
2022-11-27T06:38:43.915Z,1.80
2022-11-27T06:39:43.868Z,1.82
2022-11-27T06:40:43.917Z,1.85
2022-11-27T06:41:43.868Z,1.85
2022-11-27T06:42:43.841Z,1.84
2022-11-27T06:43:43.829Z,1.89
2022-11-27T06:44:43.815Z,1.92
2022-11-27T06:45:43.855Z,1.89
2022-11-27T06:46:43.812Z,1.89
2022-11-27T06:47:43.769Z,1.89
2022-11-27T06:48:43.766Z,1.85
2022-11-27T06:49:43.788Z,1.91
2022-11-27T06:50:43.739Z,1.91
2022-11-27T06:51:43.717Z,1.91
2022-11-27T06:52:43.721Z,1.89
2022-11-27T06:53:43.710Z,1.91
2022-11-27T06:54:43.681Z,1.93
2022-11-27T06:55:43.668Z,1.89
2022-11-27T06:56:43.657Z,1.92
2022-11-27T06:57:43.640Z,1.93
2022-11-27T06:58:43.663Z,1.89
2022-11-27T06:59:43.624Z,1.91
2022-11-27T07:00:43.725Z,1.92
2022-11-27T07:01:43.690Z,1.97
2022-11-27T07:02:43.582Z,1.99
2022-11-27T07:03:43.571Z,1.99
2022-11-27T07:04:43.561Z,1.97
2022-11-27T07:05:43.545Z,1.99
2022-11-27T07:06:43.542Z,2.00
2022-11-27T07:07:44.119Z,2.01
2022-11-27T07:08:43.516Z,2.01
2022-11-27T07:09:43.493Z,2.03
2022-11-27T07:10:43.481Z,2.00
2022-11-27T07:11:43.476Z,2.03
2022-11-27T07:12:43.462Z,2.01
2022-11-27T07:13:43.450Z,2.01
2022-11-27T07:14:43.424Z,2.07
2022-11-27T07:15:43.424Z,2.07
2022-11-27T07:16:43.471Z,2.07
2022-11-27T07:17:43.399Z,2.07
2022-11-27T07:18:43.387Z,2.10
2022-11-27T07:19:43.374Z,2.10
2022-11-27T07:20:43.343Z,2.11
2022-11-27T07:21:43.353Z,2.12
2022-11-27T07:22:43.329Z,2.14
2022-11-27T07:23:43.324Z,2.17
2022-11-27T07:24:43.376Z,2.14
2022-11-27T07:25:43.301Z,2.17
2022-11-27T07:26:43.275Z,2.17
2022-11-27T07:27:43.272Z,2.21
2022-11-27T07:28:43.285Z,2.18
2022-11-27T07:29:43.287Z,2.18
2022-11-27T07:30:43.225Z,2.19
2022-11-27T07:31:43.241Z,2.18
2022-11-27T07:32:43.195Z,2.21
2022-11-27T07:33:43.197Z,2.22
2022-11-27T07:34:43.185Z,2.25
2022-11-27T07:35:43.167Z,2.22
2022-11-27T07:36:43.169Z,2.24
2022-11-27T07:37:43.376Z,2.24
2022-11-27T07:38:43.162Z,2.28
2022-11-27T07:40:01.273Z,2.30
2022-11-27T07:40:44.108Z,2.29
2022-11-27T07:41:43.089Z,2.28
2022-11-27T07:42:43.077Z,2.32
2022-11-27T07:43:43.083Z,2.33
2022-11-27T07:44:43.200Z,2.30
2022-11-27T07:45:43.082Z,2.29
2022-11-27T07:46:43.022Z,2.30
2022-11-27T07:47:43.015Z,2.33
2022-11-27T07:48:43.012Z,2.35
2022-11-27T07:49:42.988Z,2.33
2022-11-27T07:50:42.977Z,2.37
2022-11-27T07:51:42.961Z,2.36
2022-11-27T07:52:42.940Z,2.37
2022-11-27T07:53:42.947Z,2.40
2022-11-27T07:54:42.974Z,2.39
2022-11-27T07:55:42.911Z,2.42
2022-11-27T07:56:42.900Z,2.43
2022-11-27T07:57:42.885Z,2.47
2022-11-27T07:58:42.878Z,2.48
2022-11-27T07:59:47.111Z,2.47
2022-11-27T08:00:42.864Z,2.53
2022-11-27T08:01:42.831Z,2.51
2022-11-27T08:02:42.810Z,2.54
2022-11-27T08:03:42.838Z,2.54
2022-11-27T08:04:43.240Z,2.58
2022-11-27T08:05:42.783Z,2.55
2022-11-27T08:06:42.761Z,2.58
2022-11-27T08:07:42.829Z,2.61
2022-11-27T08:08:42.752Z,2.63
2022-11-27T08:09:42.740Z,2.68
2022-11-27T08:10:43.671Z,2.69
2022-11-27T08:11:42.714Z,2.68
2022-11-27T08:12:42.692Z,2.69
2022-11-27T08:13:42.695Z,2.75
2022-11-27T08:14:42.844Z,2.76
2022-11-27T08:15:42.663Z,2.81
2022-11-27T08:16:42.706Z,2.86
2022-11-27T08:17:42.663Z,2.84
2022-11-27T08:18:42.660Z,2.87
2022-11-27T08:19:42.605Z,2.94
2022-11-27T08:20:42.585Z,2.91
2022-11-27T08:21:42.596Z,2.97
2022-11-27T08:22:42.592Z,2.97
2022-11-27T08:23:42.565Z,3.05
2022-11-27T08:24:42.808Z,3.07
2022-11-27T08:25:42.540Z,3.09
2022-11-27T08:26:42.541Z,3.18
2022-11-27T08:27:42.492Z,3.17
2022-11-27T08:28:42.486Z,3.18
2022-11-27T08:29:42.464Z,3.25
2022-11-27T08:30:42.461Z,3.26
2022-11-27T08:31:42.532Z,3.27
2022-11-27T08:32:42.425Z,3.35
2022-11-27T08:33:42.456Z,3.35
2022-11-27T08:34:42.726Z,3.37
2022-11-27T08:35:42.403Z,3.45
2022-11-27T08:36:42.376Z,3.46
2022-11-27T08:37:43.326Z,3.52
2022-11-27T08:38:42.365Z,3.51
2022-11-27T08:39:42.336Z,3.59
2022-11-27T08:40:42.338Z,3.62
2022-11-27T08:41:42.312Z,3.64
2022-11-27T08:42:42.316Z,3.72
2022-11-27T08:43:42.300Z,3.78
2022-11-27T08:44:42.621Z,3.78
2022-11-27T08:45:42.332Z,3.78
2022-11-27T08:46:42.245Z,3.84
2022-11-27T08:47:42.245Z,3.91
2022-11-27T08:48:42.247Z,3.98
2022-11-27T08:49:46.301Z,3.96
2022-11-27T08:50:42.199Z,4.02
2022-11-27T08:51:42.189Z,4.08
2022-11-27T08:52:42.176Z,4.08
2022-11-27T08:53:42.170Z,4.12
2022-11-27T08:54:42.497Z,4.16
2022-11-27T08:55:42.364Z,4.18
2022-11-27T08:56:42.120Z,4.24
2022-11-27T08:57:42.101Z,4.30
2022-11-27T08:58:42.096Z,4.34
2022-11-27T08:59:42.108Z,4.35
2022-11-27T09:00:42.127Z,4.31
2022-11-27T09:01:42.089Z,4.36
2022-11-27T09:02:42.039Z,4.39
2022-11-27T09:03:42.059Z,4.45
2022-11-27T09:04:42.458Z,4.48
2022-11-27T09:05:42.030Z,4.51
2022-11-27T09:06:42.008Z,4.53
2022-11-27T09:07:42.053Z,4.56
2022-11-27T09:08:41.971Z,4.67
2022-11-27T09:09:41.951Z,4.71
2022-11-27T09:10:41.951Z,4.64
2022-11-27T09:11:41.939Z,4.69
2022-11-27T09:12:43.589Z,4.71
2022-11-27T09:13:41.914Z,4.74
2022-11-27T09:14:42.202Z,4.82
2022-11-27T09:15:41.872Z,4.88
2022-11-27T09:16:41.897Z,4.93
2022-11-27T09:17:41.850Z,4.94
2022-11-27T09:18:43.814Z,4.93
2022-11-27T09:19:41.821Z,4.97
2022-11-27T09:20:41.803Z,4.98
2022-11-27T09:21:41.795Z,5.03
2022-11-27T09:22:41.792Z,5.03
2022-11-27T09:23:41.791Z,5.11
2022-11-27T09:24:42.101Z,5.11
2022-11-27T09:25:41.747Z,5.16
2022-11-27T09:26:41.725Z,5.19
2022-11-27T09:27:41.719Z,5.19
2022-11-27T09:28:41.707Z,5.24
2022-11-27T09:29:41.690Z,5.30
2022-11-27T09:30:41.675Z,5.29
2022-11-27T09:31:41.733Z,5.27
2022-11-27T09:32:41.655Z,5.32
2022-11-27T09:33:41.645Z,5.36
2022-11-27T09:34:41.800Z,5.37
2022-11-27T09:35:41.667Z,5.36
2022-11-27T09:36:41.596Z,5.40
2022-11-27T09:37:41.607Z,5.40
2022-11-27T09:38:41.577Z,5.47
2022-11-27T09:39:41.565Z,5.50
2022-11-27T09:40:41.537Z,5.48
2022-11-27T09:41:41.526Z,5.54
2022-11-27T09:42:41.517Z,5.57
2022-11-27T09:43:41.514Z,5.61
2022-11-27T09:44:41.705Z,5.69
2022-11-27T09:45:41.524Z,5.75
2022-11-27T09:46:41.470Z,5.79
2022-11-27T09:47:41.923Z,5.84
2022-11-27T09:48:41.443Z,5.91
2022-11-27T09:49:42.395Z,5.93
2022-11-27T09:50:41.418Z,5.95
2022-11-27T09:51:41.409Z,6.02
2022-11-27T09:52:41.399Z,6.08
2022-11-27T09:53:41.659Z,6.08
2022-11-27T09:54:41.714Z,6.09
2022-11-27T09:55:41.345Z,6.08
2022-11-27T09:56:41.332Z,6.09
2022-11-27T09:57:41.349Z,6.16
2022-11-27T09:58:41.311Z,6.15
2022-11-27T09:59:41.322Z,6.15
2022-11-27T10:00:41.291Z,6.24
2022-11-27T10:01:47.648Z,6.19
2022-11-27T10:02:43.325Z,6.19
2022-11-27T10:03:41.251Z,6.21
2022-11-27T10:05:05.852Z,6.25
2022-11-27T10:05:42.223Z,6.30
2022-11-27T10:06:41.211Z,6.27
2022-11-27T10:07:41.242Z,6.31
2022-11-27T10:08:41.186Z,6.34
2022-11-27T10:09:41.173Z,6.35
2022-11-27T10:10:41.151Z,6.34
2022-11-27T10:11:41.154Z,6.37
2022-11-27T10:12:41.124Z,6.43
2022-11-27T10:13:41.124Z,6.43
2022-11-27T10:14:41.352Z,6.40
2022-11-27T10:15:42.072Z,6.46
2022-11-27T10:16:44.563Z,6.50
2022-11-27T10:17:41.053Z,6.61
2022-11-27T10:18:41.047Z,6.64
2022-11-27T10:19:41.021Z,6.68
2022-11-27T10:20:41.075Z,6.78
2022-11-27T10:21:41.009Z,6.74
2022-11-27T10:22:40.984Z,6.75
2022-11-27T10:23:40.994Z,6.79
2022-11-27T10:24:41.128Z,6.86
2022-11-27T10:25:40.947Z,6.92
2022-11-27T10:26:40.928Z,6.92
2022-11-27T10:27:40.927Z,6.99
2022-11-27T10:28:40.905Z,7.03
2022-11-27T10:29:44.359Z,7.10
2022-11-27T10:30:40.884Z,7.04
2022-11-27T10:31:40.953Z,7.04
2022-11-27T10:32:55.199Z,7.11
2022-11-27T10:33:41.847Z,7.16
2022-11-27T10:34:41.033Z,7.24
2022-11-27T10:35:40.861Z,7.29
2022-11-27T10:36:40.798Z,7.28
2022-11-27T10:37:40.787Z,7.28
2022-11-27T10:38:40.782Z,7.28
2022-11-27T10:39:40.757Z,7.25
2022-11-27T10:40:40.746Z,7.31
2022-11-27T10:41:55.982Z,7.31
2022-11-27T10:42:41.708Z,7.34
2022-11-27T10:43:40.715Z,7.37
2022-11-27T10:44:40.927Z,7.39
2022-11-27T10:45:40.708Z,7.44
2022-11-27T10:46:40.660Z,7.47
2022-11-27T10:47:40.647Z,7.52
2022-11-27T10:48:40.641Z,7.57
2022-11-27T10:49:40.620Z,7.55
2022-11-27T10:50:40.611Z,7.49
2022-11-27T10:51:40.590Z,7.47
2022-11-27T10:52:40.581Z,7.50
2022-11-27T10:53:40.592Z,7.60
2022-11-27T10:54:40.940Z,7.62
2022-11-27T10:55:40.544Z,7.66
2022-11-27T10:56:41.469Z,7.76
2022-11-27T10:57:40.513Z,7.78
2022-11-27T10:58:40.501Z,7.86
2022-11-27T10:59:40.506Z,7.87
2022-11-27T11:00:40.516Z,7.96
2022-11-27T11:01:40.611Z,8.01
2022-11-27T11:02:40.490Z,8.04
2022-11-27T11:03:40.441Z,8.10
2022-11-27T11:04:40.413Z,8.09
2022-11-27T11:06:11.558Z,8.12
2022-11-27T11:06:41.385Z,8.14
2022-11-27T11:07:40.406Z,8.19
2022-11-27T11:08:40.363Z,8.28
2022-11-27T11:09:40.341Z,8.29
2022-11-27T11:10:40.334Z,8.26
2022-11-27T11:11:40.323Z,8.17
2022-11-27T11:12:40.301Z,8.21
2022-11-27T11:13:40.306Z,8.28
2022-11-27T11:14:40.559Z,8.31
2022-11-27T11:15:40.281Z,8.26
2022-11-27T11:16:40.294Z,8.21
2022-11-27T11:17:40.253Z,8.19
2022-11-27T11:18:40.236Z,8.12
2022-11-27T11:19:40.216Z,8.10
2022-11-27T11:20:40.195Z,8.04
2022-11-27T11:21:40.199Z,7.99
2022-11-27T11:22:40.185Z,8.01
2022-11-27T11:23:40.169Z,7.94
2022-11-27T11:24:40.382Z,7.92
2022-11-27T11:25:40.136Z,7.87
2022-11-27T11:26:40.284Z,7.86
2022-11-27T11:27:40.108Z,7.78
2022-11-27T11:28:40.095Z,7.73
2022-11-27T11:29:40.243Z,7.68
2022-11-27T11:30:40.077Z,7.78
2022-11-27T11:31:40.168Z,7.71
2022-11-27T11:32:40.078Z,7.73
2022-11-27T11:33:40.297Z,7.78
2022-11-27T11:34:40.286Z,7.80
2022-11-27T11:35:40.008Z,7.78
2022-11-27T11:36:39.990Z,7.78
2022-11-27T11:37:39.959Z,7.86
2022-11-27T11:38:39.978Z,7.95
2022-11-27T11:39:39.964Z,7.96
2022-11-27T11:40:39.924Z,8.05
2022-11-27T11:41:39.920Z,8.16
2022-11-27T11:42:39.931Z,8.19
2022-11-27T11:43:39.912Z,8.21
2022-11-27T11:44:40.158Z,8.34
2022-11-27T11:45:39.880Z,8.41
2022-11-27T11:46:40.107Z,8.53
2022-11-27T11:47:39.821Z,8.59
2022-11-27T11:48:39.822Z,8.68
2022-11-27T11:49:39.792Z,8.72
2022-11-27T11:50:39.793Z,8.77
2022-11-27T11:51:39.779Z,8.80
2022-11-27T11:52:39.789Z,8.86
2022-11-27T11:53:39.767Z,8.90
2022-11-27T11:54:39.988Z,8.89
2022-11-27T11:55:39.720Z,8.93
2022-11-27T11:56:39.709Z,8.89
2022-11-27T11:57:39.692Z,8.92
2022-11-27T11:58:39.711Z,8.93
2022-11-27T11:59:44.917Z,8.89
2022-11-27T12:01:04.459Z,8.95
2022-11-27T12:01:40.644Z,9.01
2022-11-27T12:02:39.658Z,9.06
2022-11-27T12:03:39.615Z,9.01
2022-11-27T12:04:40.216Z,9.03
2022-11-27T12:05:39.586Z,9.09
2022-11-27T12:06:39.579Z,9.15
2022-11-27T12:07:39.624Z,9.18
2022-11-27T12:08:39.556Z,9.24
2022-11-27T12:09:39.537Z,9.23
2022-11-27T12:10:39.517Z,9.19
2022-11-27T12:11:39.517Z,9.18
2022-11-27T12:12:39.496Z,9.22
2022-11-27T12:13:39.494Z,9.26
2022-11-27T12:14:39.726Z,9.24
2022-11-27T12:15:40.165Z,9.24
2022-11-27T12:16:39.541Z,9.26
2022-11-27T12:17:39.524Z,9.26
2022-11-27T12:18:39.422Z,9.30
2022-11-27T12:19:39.406Z,9.27
2022-11-27T12:20:39.441Z,9.27
2022-11-27T12:21:39.387Z,9.32
2022-11-27T12:22:39.360Z,9.29
2022-11-27T12:23:39.365Z,9.24
2022-11-27T12:24:39.642Z,9.26
2022-11-27T12:25:39.341Z,9.27
2022-11-27T12:26:39.314Z,9.18
2022-11-27T12:27:39.292Z,9.24
2022-11-27T12:28:39.290Z,9.26
2022-11-27T12:29:39.307Z,9.26
2022-11-27T12:30:39.252Z,9.26
2022-11-27T12:31:39.278Z,9.22
2022-11-27T12:32:39.222Z,9.23
2022-11-27T12:33:39.215Z,9.23
2022-11-27T12:34:39.376Z,9.29
2022-11-27T12:35:39.185Z,9.27
2022-11-27T12:36:39.173Z,9.30
2022-11-27T12:37:39.173Z,9.27
2022-11-27T12:38:39.173Z,9.30
2022-11-27T12:39:39.134Z,9.32
2022-11-27T12:40:39.355Z,9.32
2022-11-27T12:41:39.096Z,9.24
2022-11-27T12:42:39.095Z,9.16
2022-11-27T12:43:39.086Z,9.08
2022-11-27T12:44:39.373Z,9.11
2022-11-27T12:45:39.118Z,9.09
2022-11-27T12:46:39.037Z,9.11
2022-11-27T12:47:40.404Z,9.14
2022-11-27T12:48:39.017Z,9.14
2022-11-27T12:49:39.012Z,9.16
2022-11-27T12:50:38.986Z,9.22
2022-11-27T12:51:39.926Z,9.23
2022-11-27T12:52:38.967Z,9.19
2022-11-27T12:53:38.951Z,9.16
2022-11-27T12:54:39.187Z,9.11
2022-11-27T12:55:38.914Z,9.08
2022-11-27T12:56:38.909Z,8.99
2022-11-27T12:57:38.911Z,8.85
2022-11-27T12:58:38.888Z,8.78
2022-11-27T12:59:38.857Z,8.83
2022-11-27T13:00:38.859Z,8.77
2022-11-27T13:01:38.910Z,8.78
2022-11-27T13:02:38.894Z,8.77
2022-11-27T13:03:38.822Z,8.77
2022-11-27T13:04:39.985Z,8.78
2022-11-27T13:05:38.780Z,8.80
2022-11-27T13:06:38.770Z,8.85
2022-11-27T13:07:38.856Z,8.89
2022-11-27T13:08:38.758Z,8.92
2022-11-27T13:09:38.750Z,8.92
2022-11-27T13:10:38.741Z,8.96
2022-11-27T13:11:38.741Z,8.96
2022-11-27T13:12:38.697Z,9.01
2022-11-27T13:13:38.682Z,8.95
2022-11-27T13:14:38.816Z,8.90
2022-11-27T13:15:38.653Z,8.88
2022-11-27T13:16:38.711Z,8.88
2022-11-27T13:17:38.626Z,8.80
2022-11-27T13:18:38.627Z,8.71
2022-11-27T13:19:38.592Z,8.67
2022-11-27T13:20:38.596Z,8.65
2022-11-27T13:21:38.563Z,8.68